Time;durP1;ratioP1;P1;durP2;ratioP2;P2;SDS_P1;SDS_P2;PMS_P1;PMS_P2;Temp;Humidity;BMP_temperature;BMP_pressure;BME280_temperature;BME280_humidity;BME280_pressure;Samples;Min_cycle;Max_cycle;Signal;HPM_P1;HPM_P2
2022/07/04 00:00:55;;;;;;;3.08;2.00;;;15.90;99.90;;;;;;4737880;30;20050;-72
2022/07/04 00:03:21;;;;;;;4.82;2.17;;;15.90;99.90;;;;;;4738098;30;20071;-72
2022/07/04 00:05:47;;;;;;;2.55;1.70;;;15.90;99.90;;;;;;4738870;30;20126;-72
2022/07/04 00:08:13;;;;;;;5.63;2.00;;;15.90;99.90;;;;;;4738410;30;20080;-72
2022/07/04 00:10:38;;;;;;;4.35;2.10;;;15.90;99.90;;;;;;4737992;30;20435;-72
2022/07/04 00:13:05;;;;;;;3.22;1.77;;;15.90;99.90;;;;;;4738131;30;20395;-73
2022/07/04 00:15:31;;;;;;;5.38;2.20;;;15.90;99.90;;;;;;4736971;30;20127;-72
2022/07/04 00:17:57;;;;;;;4.50;2.20;;;15.80;99.90;;;;;;4738943;30;20049;-72
2022/07/04 00:20:23;;;;;;;3.83;2.35;;;15.80;99.90;;;;;;4737666;30;20068;-72
2022/07/04 00:22:48;;;;;;;4.05;2.00;;;15.80;99.90;;;;;;4738637;30;20053;-72
2022/07/04 00:25:14;;;;;;;5.57;2.60;;;15.70;99.90;;;;;;4738839;30;20051;-72
2022/07/04 00:27:40;;;;;;;3.60;2.38;;;15.70;99.90;;;;;;4738535;30;20053;-72
2022/07/04 00:30:06;;;;;;;5.43;2.45;;;15.70;99.90;;;;;;4738830;30;20059;-72
2022/07/04 00:32:32;;;;;;;4.28;2.30;;;15.60;99.90;;;;;;4738533;30;20426;-72
2022/07/04 00:34:58;;;;;;;2.85;2.15;;;15.70;99.90;;;;;;4738545;30;20114;-72
2022/07/04 00:37:23;;;;;;;3.13;2.35;;;15.70;99.90;;;;;;4736924;30;20061;-72
2022/07/04 00:39:49;;;;;;;3.92;2.35;;;15.70;99.90;;;;;;4737001;30;20388;-72
2022/07/04 00:42:15;;;;;;;3.90;2.20;;;15.60;99.90;;;;;;4738228;30;20053;-72
2022/07/04 00:44:41;;;;;;;3.08;2.10;;;15.60;99.90;;;;;;4738450;30;20048;-72
2022/07/04 00:47:07;;;;;;;3.65;2.33;;;15.60;99.90;;;;;;4737142;30;20053;-72
2022/07/04 00:49:33;;;;;;;3.92;2.67;;;15.50;99.90;;;;;;4737211;30;20064;-72
2022/07/04 00:52:00;;;;;;;3.42;2.13;;;15.50;99.90;;;;;;4737511;30;20056;-72
2022/07/04 00:54:30;;;;;;;3.28;2.42;;;15.50;99.90;;;;;;4738265;30;20056;-72
2022/07/04 00:56:57;;;;;;;4.03;2.28;;;15.50;99.90;;;;;;4738185;30;20057;-72
2022/07/04 00:59:23;;;;;;;4.38;2.47;;;15.50;99.90;;;;;;4738259;30;20055;-72
2022/07/04 01:01:50;;;;;;;2.72;2.20;;;15.50;99.90;;;;;;4737646;30;20060;-73
2022/07/04 01:04:16;;;;;;;5.90;2.90;;;15.50;99.90;;;;;;4737868;30;20112;-72
2022/07/04 01:06:44;;;;;;;4.53;2.40;;;15.50;99.90;;;;;;4737123;30;20052;-72
2022/07/04 01:09:10;;;;;;;4.40;2.50;;;15.50;99.90;;;;;;4722831;30;20052;-72
2022/07/04 01:11:36;;;;;;;3.10;2.30;;;15.40;99.90;;;;;;4737620;30;20052;-72
2022/07/04 01:14:02;;;;;;;3.63;2.35;;;15.40;99.90;;;;;;4738230;30;20052;-72
2022/07/04 01:16:28;;;;;;;3.75;2.38;;;15.50;99.90;;;;;;4738193;30;20087;-72
2022/07/04 01:18:54;;;;;;;7.82;2.60;;;15.40;99.90;;;;;;4737638;30;20053;-72
2022/07/04 01:21:21;;;;;;;7.20;2.72;;;15.40;99.90;;;;;;4737257;30;20049;-72
2022/07/04 01:23:47;;;;;;;4.43;2.58;;;15.30;99.90;;;;;;4736361;30;20396;-72
2022/07/04 01:26:12;;;;;;;5.00;3.20;;;15.40;99.90;;;;;;4738457;30;20056;-73
2022/07/04 01:28:39;;;;;;;6.35;2.90;;;15.30;99.90;;;;;;4741066;30;20073;-73
2022/07/04 01:31:05;;;;;;;4.22;3.03;;;15.30;99.90;;;;;;4741571;30;20056;-72
2022/07/04 01:33:31;;;;;;;3.83;2.90;;;15.30;99.90;;;;;;4740373;30;20127;-72
2022/07/04 01:35:57;;;;;;;7.47;3.17;;;15.20;99.90;;;;;;4725851;30;20422;-72
2022/07/04 01:38:23;;;;;;;5.40;3.25;;;15.10;99.90;;;;;;4740777;30;20060;-72
2022/07/04 01:40:55;;;;;;;5.47;3.17;;;15.20;99.90;;;;;;4740048;30;20432;-72
2022/07/04 01:43:20;;;;;;;7.78;3.22;;;15.20;99.90;;;;;;4741437;30;20040;-73
2022/07/04 01:45:47;;;;;;;6.47;3.17;;;15.20;99.90;;;;;;4740591;30;20048;-72
2022/07/04 01:48:13;;;;;;;6.03;3.30;;;15.20;99.90;;;;;;4740096;30;20068;-72
2022/07/04 01:50:39;;;;;;;9.25;3.95;;;15.20;99.90;;;;;;4740499;30;20056;-72
2022/07/04 01:53:05;;;;;;;6.97;3.47;;;15.20;99.90;;;;;;4741013;30;20439;-73
2022/07/04 01:55:31;;;;;;;3.47;2.78;;;15.20;99.90;;;;;;4741256;30;20047;-72
2022/07/04 01:57:57;;;;;;;4.00;2.88;;;15.20;99.90;;;;;;4741131;30;20052;-72
2022/07/04 02:03:08;;;;;;;5.30;2.92;;;15.10;99.90;;;;;;4727705;30;20063;-72
2022/07/04 02:05:34;;;;;;;5.30;2.95;;;15.20;99.90;;;;;;4739590;30;20049;-73
2022/07/04 02:08:00;;;;;;;5.03;3.40;;;15.20;99.90;;;;;;4740824;30;20057;-72
2022/07/04 02:10:26;;;;;;;6.35;3.33;;;15.10;99.90;;;;;;4740711;30;20049;-72
2022/07/04 02:13:04;;;;;;;6.93;2.92;;;15.10;99.90;;;;;;4740912;30;20045;-72
2022/07/04 02:15:36;;;;;;;4.90;3.25;;;15.20;99.90;;;;;;4740873;30;20056;-72
2022/07/04 02:18:04;;;;;;;5.15;3.40;;;15.10;99.90;;;;;;4739964;30;20428;-72
2022/07/04 02:20:30;;;;;;;4.25;3.33;;;15.10;99.90;;;;;;4740915;30;20087;-72
2022/07/04 02:22:56;;;;;;;4.03;3.08;;;15.00;99.90;;;;;;4739536;30;20056;-72
2022/07/04 02:25:22;;;;;;;5.35;3.10;;;15.10;99.90;;;;;;4740037;30;20053;-73
2022/07/04 02:27:48;;;;;;;4.43;3.42;;;15.10;99.90;;;;;;4740261;30;20052;-72
2022/07/04 02:30:14;;;;;;;7.65;3.42;;;15.10;99.90;;;;;;4740708;30;20123;-72
2022/07/04 02:32:40;;;;;;;5.22;3.53;;;15.10;99.90;;;;;;4740776;30;20046;-72
2022/07/04 02:35:06;;;;;;;4.75;3.20;;;15.10;99.90;;;;;;4739391;30;20057;-73
2022/07/04 02:37:32;;;;;;;4.50;3.72;;;15.00;99.90;;;;;;4724339;30;20045;-72
2022/07/04 02:39:58;;;;;;;4.03;3.40;;;15.00;99.90;;;;;;4739102;30;20048;-72
2022/07/04 02:42:24;;;;;;;6.28;3.35;;;14.90;99.90;;;;;;4739346;30;20106;-72
2022/07/04 02:44:49;;;;;;;5.03;3.55;;;15.00;99.90;;;;;;4740210;30;20075;-72
2022/07/04 02:47:16;;;;;;;6.43;4.35;;;15.00;99.90;;;;;;4739900;30;20092;-72
2022/07/04 02:49:42;;;;;;;5.38;3.75;;;15.00;99.90;;;;;;4739555;30;20049;-72
2022/07/04 02:52:08;;;;;;;7.65;4.18;;;15.10;99.90;;;;;;4738518;30;20507;-72
2022/07/04 02:54:33;;;;;;;6.18;3.78;;;15.10;99.90;;;;;;4740108;30;20044;-72
2022/07/04 02:56:59;;;;;;;5.82;3.50;;;15.00;99.90;;;;;;4740118;30;20427;-72
2022/07/04 02:59:25;;;;;;;6.50;4.07;;;15.00;99.90;;;;;;4740032;30;20052;-72
2022/07/04 03:01:50;;;;;;;7.18;4.10;;;15.00;99.90;;;;;;4739939;30;20049;-72
2022/07/04 03:04:16;;;;;;;7.07;4.13;;;15.10;99.90;;;;;;4740028;30;20051;-72
2022/07/04 03:06:42;;;;;;;7.05;4.55;;;15.10;99.90;;;;;;4740142;30;20105;-73
2022/07/04 03:09:08;;;;;;;4.38;3.90;;;15.20;99.90;;;;;;4738491;30;20443;-72
2022/07/04 03:11:34;;;;;;;6.75;4.55;;;15.10;99.90;;;;;;4739255;30;20048;-72
2022/07/04 03:14:00;;;;;;;9.07;5.45;;;15.20;99.90;;;;;;4738783;30;20059;-72
2022/07/04 03:16:25;;;;;;;8.40;5.32;;;15.20;99.90;;;;;;4739811;30;20040;-72
2022/07/04 03:18:51;;;;;;;6.15;4.78;;;15.30;99.90;;;;;;4739821;30;20387;-72
2022/07/04 03:21:17;;;;;;;11.18;5.60;;;15.30;99.90;;;;;;4739862;30;20056;-72
2022/07/04 03:23:43;;;;;;;10.10;5.88;;;15.30;99.90;;;;;;4738640;30;20347;-72
2022/07/04 03:26:09;;;;;;;14.43;5.20;;;15.30;99.90;;;;;;4739648;30;20095;-72
2022/07/04 03:28:35;;;;;;;6.75;5.20;;;15.40;99.90;;;;;;4739660;30;20123;-72
2022/07/04 03:31:00;;;;;;;11.88;6.35;;;15.50;99.90;;;;;;4739484;30;20495;-72
2022/07/04 03:33:26;;;;;;;7.70;5.53;;;15.50;99.90;;;;;;4738653;30;20423;-72
2022/07/04 03:35:52;;;;;;;6.95;5.18;;;15.50;99.90;;;;;;4738400;30;20139;-72
2022/07/04 03:38:17;;;;;;;6.93;5.20;;;15.50;99.90;;;;;;4739830;30;20095;-72
2022/07/04 03:40:43;;;;;;;7.85;4.70;;;15.40;99.90;;;;;;4738409;30;20048;-72
2022/07/04 03:43:09;;;;;;;11.48;5.78;;;15.50;99.90;;;;;;4738453;30;20079;-72
2022/07/04 03:45:34;;;;;;;9.30;4.88;;;15.50;99.90;;;;;;4738451;30;20053;-72
2022/07/04 03:48:03;;;;;;;7.47;5.15;;;15.40;99.90;;;;;;4737864;30;20355;-72
2022/07/04 03:50:29;;;;;;;9.55;5.97;;;15.50;99.90;;;;;;4738475;30;20127;-72
2022/07/04 03:52:54;;;;;;;8.02;5.50;;;15.60;99.90;;;;;;4738313;30;20360;-72
2022/07/04 03:55:20;;;;;;;7.82;5.53;;;15.60;99.90;;;;;;4737971;30;20049;-72
2022/07/04 03:57:46;;;;;;;9.43;6.05;;;15.60;99.90;;;;;;4738397;30;20045;-72
2022/07/04 04:00:12;;;;;;;7.55;5.18;;;15.60;99.90;;;;;;4738613;30;20044;-72
2022/07/04 04:02:38;;;;;;;7.97;5.78;;;15.70;99.90;;;;;;4738291;30;20076;-73
2022/07/04 04:07:49;;;;;;;7.25;5.30;;;15.60;99.90;;;;;;4738400;30;20359;-72
2022/07/04 04:10:15;;;;;;;8.70;5.20;;;15.60;99.90;;;;;;4738358;30;20044;-72
2022/07/04 04:12:41;;;;;;;8.88;5.30;;;15.50;99.90;;;;;;4737967;30;20423;-72
2022/07/04 04:15:07;;;;;;;9.07;5.85;;;15.50;99.90;;;;;;4738819;30;20414;-72
2022/07/04 04:17:33;;;;;;;8.20;5.85;;;15.40;99.90;;;;;;4738685;30;20053;-72
2022/07/04 04:19:59;;;;;;;8.20;5.03;;;15.50;99.90;;;;;;4738944;30;20040;-72
2022/07/04 04:22:24;;;;;;;7.93;5.25;;;15.60;99.90;;;;;;4737845;30;20041;-72
2022/07/04 04:24:50;;;;;;;8.00;4.78;;;15.60;99.90;;;;;;4738518;30;20049;-72
2022/07/04 04:27:15;;;;;;;10.07;5.20;;;15.70;99.90;;;;;;4737345;30;20059;-72
2022/07/04 04:29:41;;;;;;;8.00;5.57;;;15.80;99.90;;;;;;4736977;30;20049;-72
2022/07/04 04:32:07;;;;;;;8.95;5.00;;;15.90;99.90;;;;;;4738752;30;20052;-72
2022/07/04 04:34:33;;;;;;;5.80;4.43;;;16.00;99.90;;;;;;4738509;30;20111;-72
2022/07/04 04:36:59;;;;;;;12.27;6.80;;;15.90;99.90;;;;;;4738612;30;20084;-73
2022/07/04 04:39:25;;;;;;;7.85;5.63;;;16.10;99.90;;;;;;4738702;30;20049;-72
2022/07/04 04:41:51;;;;;;;8.95;6.18;;;16.20;99.90;;;;;;4736840;30;20053;-72
2022/07/04 04:44:19;;;;;;;9.32;5.95;;;16.30;99.90;;;;;;4738542;30;20045;-73
2022/07/04 04:46:45;;;;;;;12.18;7.07;;;16.50;99.90;;;;;;4737143;30;20056;-73
2022/07/04 04:49:11;;;;;;;10.88;6.07;;;16.60;99.90;;;;;;4737471;30;20457;-72
2022/07/04 04:51:37;;;;;;;9.45;5.32;;;16.70;99.90;;;;;;4736951;30;20055;-72
2022/07/04 04:54:02;;;;;;;7.47;5.25;;;16.60;99.90;;;;;;4736808;30;20406;-72
2022/07/04 04:56:28;;;;;;;12.63;5.70;;;16.70;99.90;;;;;;4736748;30;20064;-72
2022/07/04 04:58:54;;;;;;;7.38;5.28;;;16.70;99.90;;;;;;4736953;30;20079;-73
2022/07/04 05:01:19;;;;;;;11.65;6.55;;;16.80;99.90;;;;;;4736741;30;20049;-72
2022/07/04 05:03:45;;;;;;;12.45;5.97;;;17.00;99.90;;;;;;4738001;30;20079;-73
2022/07/04 05:06:11;;;;;;;11.02;6.70;;;17.10;99.90;;;;;;4738361;30;20044;-72
2022/07/04 05:08:37;;;;;;;8.35;4.82;;;17.10;99.90;;;;;;4737497;30;20489;-73
2022/07/04 05:11:02;;;;;;;14.63;6.32;;;17.20;99.90;;;;;;4737552;30;20406;-72
2022/07/04 05:13:28;;;;;;;7.80;6.30;;;17.30;99.90;;;;;;4736231;30;20103;-73
2022/07/04 05:15:54;;;;;;;9.65;6.05;;;17.40;99.90;;;;;;4737235;30;20202;-73
2022/07/04 05:18:19;;;;;;;12.45;5.80;;;17.50;99.90;;;;;;4737846;30;20063;-73
2022/07/04 05:20:45;;;;;;;13.63;7.20;;;17.60;99.90;;;;;;4722279;30;20062;-72
2022/07/04 05:23:11;;;;;;;11.30;5.53;;;17.60;99.90;;;;;;4737802;30;20095;-73
2022/07/04 05:25:37;;;;;;;6.82;4.90;;;17.70;99.90;;;;;;4737642;30;20056;-73
2022/07/04 05:28:03;;;;;;;13.70;6.82;;;17.90;99.90;;;;;;4737738;30;20037;-73
2022/07/04 05:30:29;;;;;;;9.02;5.60;;;17.90;99.90;;;;;;4738006;30;20075;-73
2022/07/04 05:32:54;;;;;;;12.90;5.82;;;17.90;99.90;;;;;;4737174;30;20071;-73
2022/07/04 05:35:20;;;;;;;7.63;5.38;;;18.00;99.90;;;;;;4736917;30;20120;-73
2022/07/04 05:37:46;;;;;;;8.52;5.95;;;17.90;99.90;;;;;;4737828;30;20222;-73
2022/07/04 05:40:12;;;;;;;10.18;6.13;;;17.90;99.90;;;;;;4737011;30;20047;-73
2022/07/04 05:42:37;;;;;;;12.45;6.85;;;17.90;99.90;;;;;;4735934;30;20439;-73
2022/07/04 05:45:04;;;;;;;12.73;6.45;;;18.00;99.90;;;;;;4737364;30;20056;-73
2022/07/04 05:47:29;;;;;;;9.45;6.30;;;18.00;99.90;;;;;;4737435;30;20049;-73
2022/07/04 05:49:55;;;;;;;14.38;5.97;;;18.00;99.90;;;;;;4737901;30;20044;-73
2022/07/04 05:52:21;;;;;;;9.98;6.45;;;18.10;99.90;;;;;;4736589;30;20055;-73
2022/07/04 05:54:48;;;;;;;8.98;5.78;;;18.10;99.90;;;;;;4737906;30;20106;-73
2022/07/04 05:57:14;;;;;;;11.07;6.07;;;18.00;99.90;;;;;;4736641;30;20110;-73
2022/07/04 05:59:40;;;;;;;12.57;6.78;;;18.00;99.90;;;;;;4737840;30;20056;-73
2022/07/04 06:02:05;;;;;;;14.10;6.55;;;18.10;99.90;;;;;;4737591;30;20077;-73
2022/07/04 06:04:31;;;;;;;13.35;6.25;;;18.10;99.90;;;;;;4737437;30;20043;-73
2022/07/04 06:06:57;;;;;;;12.45;6.40;;;18.20;99.90;;;;;;4736767;30;20057;-73
2022/07/04 06:09:23;;;;;;;14.23;7.13;;;18.30;99.90;;;;;;4737628;30;20053;-73
2022/07/04 06:11:48;;;;;;;11.57;6.15;;;18.40;99.90;;;;;;4737369;30;20390;-73
2022/07/04 06:14:14;;;;;;;10.20;6.30;;;18.40;99.90;;;;;;4740018;30;20083;-73
2022/07/04 06:16:40;;;;;;;11.48;6.10;;;18.30;99.90;;;;;;4741023;30;20052;-73
2022/07/04 06:19:05;;;;;;;7.45;4.85;;;18.50;99.90;;;;;;4739942;30;20339;-73
2022/07/04 06:21:31;;;;;;;9.30;5.13;;;18.60;99.90;;;;;;4740705;30;20539;-73
2022/07/04 06:23:58;;;;;;;11.25;5.25;;;18.70;99.90;;;;;;4740656;30;20102;-73
2022/07/04 06:26:24;;;;;;;10.80;5.70;;;18.80;99.90;;;;;;4740535;30;20049;-73
2022/07/04 06:28:49;;;;;;;14.23;5.80;;;18.90;99.90;;;;;;4740734;30;20045;-73
2022/07/04 06:31:15;;;;;;;9.70;4.72;;;18.70;99.90;;;;;;4739850;30;20062;-73
2022/07/04 06:36:25;;;;;;;11.70;5.88;;;19.10;99.90;;;;;;4739422;30;20053;-73
2022/07/04 06:38:51;;;;;;;11.50;4.72;;;19.10;99.90;;;;;;4739541;30;20067;-73
2022/07/04 06:41:17;;;;;;;8.50;4.43;;;19.00;99.90;;;;;;4739934;30;20477;-73
2022/07/04 06:43:42;;;;;;;8.48;4.60;;;18.90;99.90;;;;;;4740577;30;20098;-73
2022/07/04 06:46:09;;;;;;;9.35;4.28;;;18.90;99.90;;;;;;4740288;30;20110;-73
2022/07/04 06:48:35;;;;;;;8.75;4.15;;;19.00;99.90;;;;;;4724460;30;20060;-73
2022/07/04 06:51:00;;;;;;;11.70;4.30;;;19.10;99.90;;;;;;4740191;30;20051;-73
2022/07/04 06:53:26;;;;;;;12.48;5.63;;;19.20;99.90;;;;;;4722840;30;20465;-74
2022/07/04 06:55:52;;;;;;;12.18;4.57;;;19.30;99.90;;;;;;4738990;30;20497;-73
2022/07/04 06:58:18;;;;;;;10.02;4.70;;;19.20;99.90;;;;;;4740203;30;20048;-73
2022/07/04 07:00:44;;;;;;;10.98;4.28;;;19.20;99.90;;;;;;4740033;30;20052;-73
2022/07/04 07:03:10;;;;;;;9.98;4.65;;;19.30;99.90;;;;;;4740026;30;20044;-73
2022/07/04 07:05:39;;;;;;;8.65;4.65;;;19.40;99.90;;;;;;4738938;30;20074;-73
2022/07/04 07:08:04;;;;;;;11.10;4.70;;;19.60;99.90;;;;;;4739826;30;20048;-73
2022/07/04 07:10:32;;;;;;;8.25;4.45;;;19.70;99.90;;;;;;4739559;30;20321;-74
2022/07/04 07:12:59;;;;;;;9.98;4.35;;;19.60;99.90;;;;;;4739125;30;20063;-73
2022/07/04 07:15:24;;;;;;;7.35;3.20;;;19.70;99.90;;;;;;4738996;30;20398;-73
2022/07/04 07:17:50;;;;;;;8.95;3.58;;;19.90;99.90;;;;;;4740030;30;20048;-73
2022/07/04 07:20:16;;;;;;;10.60;3.50;;;19.90;99.90;;;;;;4739782;30;20339;-73
2022/07/04 07:22:42;;;;;;;10.18;3.55;;;19.90;99.90;;;;;;4738577;30;20051;-73
2022/07/04 07:25:11;;;;;;;8.02;3.30;;;19.90;99.90;;;;;;4723797;30;20045;-73
2022/07/04 07:27:38;;;;;;;7.80;3.42;;;19.80;99.90;;;;;;4739837;30;20072;-73
2022/07/04 07:30:05;;;;;;;11.00;3.40;;;19.80;99.90;;;;;;4739600;30;20048;-73
2022/07/04 07:32:31;;;;;;;7.20;3.42;;;20.00;99.90;;;;;;4738365;30;20056;-73
2022/07/04 07:34:57;;;;;;;12.20;3.28;;;20.10;99.90;;;;;;4739695;30;20055;-73
2022/07/04 07:37:23;;;;;;;10.15;3.20;;;20.20;99.90;;;;;;4738484;30;20056;-73
2022/07/04 07:39:49;;;;;;;8.82;2.75;;;20.30;99.90;;;;;;4738520;30;20048;-80
2022/07/04 07:42:15;;;;;;;6.53;2.80;;;20.30;99.90;;;;;;4738734;30;20044;-79
2022/07/04 07:44:41;;;;;;;8.45;2.38;;;20.20;99.90;;;;;;4738223;30;20052;-76
2022/07/04 07:47:07;;;;;;;11.73;2.92;;;20.20;99.90;;;;;;4740988;30;20049;-80
2022/07/04 07:49:33;;;;;;;9.95;2.83;;;20.10;99.90;;;;;;4739175;30;20420;-76
2022/07/04 07:51:58;;;;;;;8.40;2.78;;;20.10;99.90;;;;;;4739041;30;20131;-77
2022/07/04 07:54:24;;;;;;;6.10;2.10;;;19.90;99.90;;;;;;4739290;30;20052;-76
2022/07/04 07:56:50;;;;;;;7.07;2.33;;;20.10;99.90;;;;;;4739373;30;20044;-74
2022/07/04 07:59:18;;;;;;;9.90;2.97;;;20.20;99.90;;;;;;4745046;30;20062;-76
2022/07/04 08:01:44;;;;;;;6.25;2.00;;;20.30;99.90;;;;;;4739531;30;20052;-74
2022/07/04 08:06:54;;;;;;;6.30;3.03;;;20.20;99.90;;;;;;4737965;30;20084;-76
2022/07/04 08:09:20;;;;;;;7.07;2.90;;;20.10;99.90;;;;;;4723262;30;20095;-75
2022/07/04 08:11:45;;;;;;;9.20;2.60;;;20.10;99.90;;;;;;4737474;30;20057;-75
2022/07/04 08:14:11;;;;;;;10.63;2.40;;;20.00;99.90;;;;;;4739122;30;20213;-75
2022/07/04 08:16:37;;;;;;;5.85;2.33;;;20.10;99.90;;;;;;4738684;30;20056;-75
2022/07/04 08:19:03;;;;;;;9.75;2.45;;;20.10;99.90;;;;;;4738974;30;20049;-76
2022/07/04 08:21:29;;;;;;;8.25;2.45;;;20.10;99.90;;;;;;4737660;30;20424;-77
2022/07/04 08:23:55;;;;;;;7.38;2.58;;;20.00;99.90;;;;;;4739892;30;20051;-75
2022/07/04 08:26:20;;;;;;;7.32;2.30;;;20.10;99.90;;;;;;4738767;30;20040;-75
2022/07/04 08:28:46;;;;;;;9.27;2.88;;;19.90;99.90;;;;;;4737582;30;20499;-76
2022/07/04 08:31:12;;;;;;;10.95;2.85;;;19.90;99.90;;;;;;4738511;30;20105;-76
2022/07/04 08:33:37;;;;;;;11.10;3.03;;;19.80;99.90;;;;;;4738539;30;20048;-77
2022/07/04 08:36:03;;;;;;;13.75;3.28;;;19.70;99.90;;;;;;4737975;30;20045;-76
2022/07/04 08:38:29;;;;;;;10.48;3.60;;;19.60;99.90;;;;;;4737600;30;20320;-76
2022/07/04 08:41:01;;;;;;;8.20;3.58;;;19.40;99.90;;;;;;4736959;30;20458;-76
2022/07/04 08:43:32;;;;;;;8.73;3.25;;;19.30;99.90;;;;;;4738603;30;20044;-76
2022/07/04 08:45:59;;;;;;;11.98;4.53;;;19.50;99.90;;;;;;4738562;30;20056;-76
2022/07/04 08:48:28;;;;;;;7.95;3.03;;;19.50;99.90;;;;;;4738214;30;20163;-75
2022/07/04 08:51:03;;;;;;;11.52;3.20;;;19.50;99.90;;;;;;4737396;30;20053;-76
2022/07/04 08:53:31;;;;;;;6.75;2.97;;;19.10;99.90;;;;;;4722857;30;20044;-75
2022/07/04 08:58:45;;;;;;;8.07;1.95;;;18.40;99.90;;;;;;4712826;30;20048;-78
2022/07/04 09:01:14;;;;;;;8.80;1.70;;;18.20;99.90;;;;;;4722645;30;20052;-87
2022/07/04 09:03:45;;;;;;;7.22;1.92;;;18.10;99.90;;;;;;4737146;30;20046;-87
2022/07/04 09:06:11;;;;;;;5.13;1.88;;;18.00;99.90;;;;;;4722735;30;20106;-87
2022/07/04 09:08:38;;;;;;;7.35;1.67;;;18.20;99.90;;;;;;4737447;30;20454;-88
2022/07/04 09:11:05;;;;;;;3.85;1.98;;;18.40;99.90;;;;;;4722369;30;20060;-76
2022/07/04 09:13:31;;;;;;;5.68;2.00;;;18.70;99.90;;;;;;4738272;30;20048;-77
2022/07/04 09:15:57;;;;;;;7.07;1.80;;;18.90;99.90;;;;;;4736985;30;20052;-77
2022/07/04 09:18:30;;;;;;;3.95;2.00;;;19.20;99.90;;;;;;4737060;30;20048;-77
2022/07/04 09:20:59;;;;;;;3.90;1.40;;;19.70;99.90;;;;;;4736848;30;20055;-79
2022/07/04 09:23:30;;;;;;;3.40;1.80;;;19.80;99.90;;;;;;4737870;30;20049;-78
2022/07/04 09:26:20;;;;;;;4.57;1.55;;;19.70;99.90;;;;;;4737044;30;20106;-79
2022/07/04 09:28:57;;;;;;;6.10;1.55;;;19.70;99.90;;;;;;4737148;30;20340;-78
2022/07/04 09:31:28;;;;;;;4.30;1.10;;;19.70;99.90;;;;;;4722530;30;20060;-79
2022/07/04 09:34:00;;;;;;;5.80;1.42;;;19.80;99.90;;;;;;4737285;30;20091;-77
2022/07/04 09:36:31;;;;;;;2.85;1.10;;;19.60;99.90;;;;;;4737811;30;20057;-78
2022/07/04 09:39:14;;;;;;;4.43;1.40;;;19.60;99.90;;;;;;4737741;30;20329;-78
2022/07/04 09:42:09;;;;;;;3.40;1.42;;;19.60;99.90;;;;;;4737631;30;20040;-77
2022/07/04 09:44:46;;;;;;;14.23;2.45;;;19.70;99.90;;;;;;4733500;30;20053;-90
2022/07/04 09:47:22;;;;;;;2.90;1.08;;;19.80;99.90;;;;;;4736999;30;20147;-89
2022/07/04 09:50:19;;;;;;;4.80;1.33;;;20.00;99.90;;;;;;4725712;30;20051;-86
2022/07/04 09:52:53;;;;;;;3.20;1.25;;;20.50;99.90;;;;;;4732927;30;20060;-82
2022/07/04 09:55:25;;;;;;;3.75;0.93;;;20.60;99.90;;;;;;4740423;30;20135;-77
2022/07/04 09:57:51;;;;;;;3.90;1.17;;;20.40;99.90;;;;;;4739971;30;20120;-78
2022/07/04 10:00:35;;;;;;;3.10;1.23;;;20.60;99.90;;;;;;4741101;30;20127;-78
2022/07/04 10:03:22;;;;;;;5.85;1.10;;;20.60;99.90;;;;;;4741299;30;20063;-77
2022/07/04 10:06:00;;;;;;;;;;;20.50;99.90;;;;;;4741949;30;20047;-78
2022/07/04 10:08:26;;;;;;;3.88;0.98;;;20.90;99.90;;;;;;4741241;30;19929;-78
2022/07/04 10:11:00;;;;;;;1.95;0.82;;;20.90;99.90;;;;;;4739540;30;20431;-78
2022/07/04 10:13:26;;;;;;;4.93;1.35;;;21.00;99.90;;;;;;4740997;30;20060;-78
2022/07/04 10:15:52;;;;;;;3.78;1.48;;;21.00;99.90;;;;;;4740062;30;20045;-78
2022/07/04 10:18:19;;;;;;;3.30;1.08;;;21.10;99.90;;;;;;4740873;30;20049;-78
2022/07/04 10:20:46;;;;;;;4.20;1.23;;;21.40;99.90;;;;;;4739876;30;20090;-78
2022/07/04 10:23:12;;;;;;;3.17;1.00;;;21.40;99.90;;;;;;4739735;30;20052;-78
2022/07/04 10:25:39;;;;;;;3.75;1.10;;;21.00;99.90;;;;;;4740937;30;20067;-77
2022/07/04 10:28:05;;;;;;;4.38;1.00;;;21.00;99.90;;;;;;4740608;30;20100;-81
2022/07/04 10:30:36;;;;;;;3.38;0.90;;;21.20;99.90;;;;;;4740787;30;20455;-78
2022/07/04 10:33:08;;;;;;;2.60;1.00;;;21.30;99.90;;;;;;4739931;30;20052;-76
2022/07/04 10:36:03;;;;;;;2.60;0.85;;;21.70;99.90;;;;;;4739429;30;20056;-77
2022/07/04 10:38:31;;;;;;;1.63;0.82;;;22.30;99.90;;;;;;4740662;30;20048;-77
2022/07/04 10:41:03;;;;;;;2.60;0.88;;;22.60;99.90;;;;;;4738847;30;20048;-83
2022/07/04 10:43:38;;;;;;;3.65;1.00;;;22.20;99.90;;;;;;4739712;30;20037;-79
2022/07/04 10:46:16;;;;;;;2.80;0.98;;;22.10;99.90;;;;;;4739763;30;20301;-77
2022/07/04 10:48:55;;;;;;;2.67;0.95;;;22.00;99.90;;;;;;4739172;30;20071;-80
2022/07/04 10:51:41;;;;;;;4.30;1.10;;;21.80;99.90;;;;;;4739244;30;20061;-84
2022/07/04 10:54:11;;;;;;;2.90;0.93;;;21.80;99.90;;;;;;4739304;30;20052;-84
2022/07/04 10:56:38;;;;;;;6.72;1.13;;;21.90;99.90;;;;;;4739217;30;20098;-76
2022/07/04 10:59:22;;;;;;;5.25;1.02;;;21.60;99.90;;;;;;4739659;30;20051;-76
2022/07/04 11:01:50;;;;;;;4.82;1.17;;;21.70;99.90;;;;;;4739123;30;20061;-74
2022/07/04 11:04:47;;;;;;;1.20;0.90;;;21.80;99.90;;;;;;4739038;30;20123;-73
2022/07/04 11:07:14;;;;;;;5.03;1.20;;;22.00;99.90;;;;;;4712663;30;20441;-73
2022/07/04 11:09:40;;;;;;;2.60;0.80;;;21.90;99.90;;;;;;4740078;30;20169;-73
2022/07/04 11:12:06;;;;;;;4.35;0.90;;;21.80;99.90;;;;;;4739400;30;20055;-74
2022/07/04 11:14:46;;;;;;;3.67;1.35;;;22.00;99.90;;;;;;4739013;30;20056;-73
2022/07/04 11:17:12;;;;;;;4.05;0.90;;;22.30;99.90;;;;;;4740123;30;20048;-76
2022/07/04 11:19:39;;;;;;;2.42;0.73;;;23.00;99.90;;;;;;4738688;30;20049;-76
2022/07/04 11:22:07;;;;;;;3.90;0.93;;;23.10;99.90;;;;;;4739917;30;20060;-77
2022/07/04 11:24:33;;;;;;;3.13;0.80;;;22.60;99.90;;;;;;4738567;30;20040;-77
2022/07/04 11:27:00;;;;;;;2.33;0.70;;;21.90;99.90;;;;;;4739737;30;20044;-81
2022/07/04 11:29:26;;;;;;;4.65;0.75;;;21.70;99.90;;;;;;4724415;30;20044;-85
2022/07/04 11:31:52;;;;;;;3.05;0.60;;;22.00;99.90;;;;;;4738727;30;20111;-83
2022/07/04 11:34:19;;;;;;;1.70;0.70;;;22.10;99.90;;;;;;4724184;30;20049;-86
2022/07/04 11:36:47;;;;;;;3.92;0.82;;;22.20;99.90;;;;;;4743703;30;20115;-84
2022/07/04 11:39:19;;;;;;;1.83;0.60;;;22.30;99.90;;;;;;4739341;30;20048;-78
2022/07/04 11:47:25;;;;;;;2.85;0.60;;;22.60;99.90;;;;;;4738148;30;20064;-80
2022/07/04 11:49:59;;;;;;;2.72;0.77;;;23.00;99.90;;;;;;4738377;30;20103;-78
2022/07/04 11:52:28;;;;;;;4.43;0.77;;;23.00;99.70;;;;;;4739556;30;20053;-81
2022/07/04 11:54:53;;;;;;;2.42;0.57;;;23.00;99.90;;;;;;4738427;30;20045;-91
2022/07/04 11:57:28;;;;;;;4.97;0.70;;;22.30;99.90;;;;;;4723893;30;20446;-86
2022/07/04 11:59:55;;;;;;;4.82;0.80;;;22.30;99.90;;;;;;4738449;30;20439;-89
2022/07/04 12:02:21;;;;;;;2.65;0.52;;;22.40;99.90;;;;;;4723651;30;20117;-80
2022/07/04 12:04:47;;;;;;;3.58;0.70;;;22.90;99.90;;;;;;4739297;30;20123;-86
2022/07/04 12:07:15;;;;;;;4.15;0.70;;;23.00;99.90;;;;;;4737900;30;20080;-86
2022/07/04 12:09:41;;;;;;;3.95;0.95;;;23.40;99.90;;;;;;4723694;30;20053;-92
2022/07/04 12:12:09;;;;;;;3.33;0.70;;;23.10;99.70;;;;;;4722451;30;20056;-86
2022/07/04 12:14:35;;;;;;;1.38;0.60;;;22.70;99.80;;;;;;4723754;30;20048;-77
2022/07/04 12:17:19;;;;;;;3.75;0.70;;;22.50;99.90;;;;;;4737638;30;20041;-79
2022/07/04 12:19:52;;;;;;;3.55;0.82;;;22.60;99.90;;;;;;4737742;30;20063;-90
2022/07/04 12:22:57;;;;;;;4.30;0.90;;;22.70;99.50;;;;;;4738286;30;20110;-91
2022/07/04 12:25:37;;;;;;;2.08;0.70;;;22.50;99.90;;;;;;4704852;30;20052;-82
2022/07/04 12:28:08;;;;;;;2.15;0.98;;;22.40;99.90;;;;;;4705341;30;20440;-84
2022/07/04 12:30:36;;;;;;;4.18;0.70;;;22.40;99.90;;;;;;4724175;30;20056;-86
2022/07/04 12:33:07;;;;;;;3.88;1.15;;;22.60;99.90;;;;;;4737680;30;20144;-82
2022/07/04 12:35:56;;;;;;;2.85;1.02;;;22.90;99.90;;;;;;4738431;30;20131;-77
2022/07/04 12:38:28;;;;;;;4.63;0.80;;;22.70;99.90;;;;;;4738756;30;20052;-83
2022/07/04 12:41:04;;;;;;;3.47;0.77;;;22.60;99.90;;;;;;4737200;30;20341;-84
2022/07/04 12:43:39;;;;;;;;;;;22.70;99.90;;;;;;4739138;30;20086;-89
2022/07/04 12:46:04;;;;;;;5.20;0.70;;;22.50;99.90;;;;;;4737363;30;19922;-80
2022/07/04 12:48:30;;;;;;;2.42;0.60;;;22.50;99.90;;;;;;4722814;30;20079;-81
2022/07/04 12:51:15;;;;;;;2.63;0.90;;;22.60;99.90;;;;;;4722782;30;20114;-81
2022/07/04 12:53:43;;;;;;;2.83;0.90;;;22.30;99.90;;;;;;4737643;30;20441;-80
2022/07/04 12:56:09;;;;;;;3.42;0.90;;;22.30;99.90;;;;;;4722677;30;20052;-80
2022/07/04 12:58:36;;;;;;;2.22;0.80;;;22.40;99.90;;;;;;4723130;30;20056;-93
2022/07/04 13:01:05;;;;;;;2.47;0.82;;;22.50;99.80;;;;;;4723340;30;20396;-83
2022/07/04 13:03:31;;;;;;;3.20;0.65;;;22.90;99.90;;;;;;4722617;30;20051;-82
2022/07/04 13:05:57;;;;;;;2.15;0.60;;;22.60;99.60;;;;;;4722856;30;20044;-83
2022/07/04 13:08:23;;;;;;;2.40;0.65;;;22.60;99.90;;;;;;4708419;30;20048;-74